createdAt,value
2023-03-26T00:00:00.141Z,68.15
2023-03-26T00:05:04.482Z,67.99
2023-03-26T00:10:09.542Z,68.04
2023-03-26T00:15:14.493Z,67.64
2023-03-26T00:20:35.851Z,68.18
2023-03-26T00:25:41.628Z,67.84
2023-03-26T00:30:46.744Z,67.49
2023-03-26T00:35:54.402Z,67.67
2023-03-26T00:41:06.141Z,67.87
2023-03-26T00:46:47.560Z,66.96
2023-03-26T00:52:10.234Z,67.02
2023-03-26T00:57:20.186Z,67.14
2023-03-26T01:02:30.791Z,67.59
2023-03-26T01:07:35.346Z,68.07
2023-03-26T01:12:38.909Z,67.70
2023-03-26T01:18:05.073Z,67.53
2023-03-26T01:23:53.537Z,67.42
2023-03-26T01:29:01.808Z,68.36
2023-03-26T01:34:12.517Z,67.84
2023-03-26T01:39:21.798Z,67.48
2023-03-26T01:44:32.826Z,67.57
2023-03-26T01:49:36.625Z,67.03
2023-03-26T01:54:41.442Z,67.24
2023-03-26T02:00:07.310Z,66.98
2023-03-26T02:05:17.312Z,66.83
2023-03-26T02:10:25.558Z,67.90
2023-03-26T02:15:30.639Z,67.59
2023-03-26T02:20:34.229Z,67.24
2023-03-26T02:25:39.988Z,67.04
2023-03-26T02:30:46.041Z,66.15
2023-03-26T02:35:49.687Z,66.91
2023-03-26T02:40:53.340Z,67.42
2023-03-26T02:45:58.527Z,66.73
2023-03-26T02:51:37.770Z,67.42
2023-03-26T02:56:41.347Z,66.92
2023-03-26T03:01:46.180Z,67.33
2023-03-26T03:06:57.706Z,66.96
2023-03-26T03:12:01.222Z,66.32
2023-03-26T03:17:24.531Z,65.73
2023-03-26T03:22:27.965Z,66.56
2023-03-26T03:27:31.840Z,66.20
2023-03-26T03:32:36.783Z,66.11
2023-03-26T03:37:40.126Z,66.06
2023-03-26T03:42:43.610Z,66.29
2023-03-26T03:47:48.489Z,66.48
2023-03-26T03:52:51.925Z,65.02
2023-03-26T03:57:56.327Z,66.30
2023-03-26T04:03:06.349Z,66.40
2023-03-26T04:08:09.904Z,65.90
2023-03-26T04:13:14.309Z,66.81
2023-03-26T04:18:20.670Z,67.05
2023-03-26T04:24:02.316Z,66.88
2023-03-26T04:29:13.076Z,66.73
2023-03-26T04:34:24.421Z,66.50
2023-03-26T04:39:29.528Z,66.29
2023-03-26T04:44:35.081Z,65.77
2023-03-26T04:49:39.800Z,66.12
2023-03-26T04:55:02.927Z,66.73
2023-03-26T05:00:15.545Z,67.12
2023-03-26T05:05:20.534Z,67.48
2023-03-26T05:10:24.240Z,66.56
2023-03-26T05:20:50.124Z,67.36
2023-03-26T05:25:53.344Z,66.58
2023-03-26T05:30:57.262Z,66.56
2023-03-26T05:36:04.355Z,66.32
2023-03-26T05:41:09.899Z,66.38
2023-03-26T05:46:13.694Z,66.72
2023-03-26T05:51:36.021Z,66.22
2023-03-26T05:57:16.498Z,66.47
2023-03-26T06:02:20.035Z,67.02
2023-03-26T06:07:24.954Z,66.60
2023-03-26T06:12:28.140Z,66.14
2023-03-26T06:17:49.860Z,66.21
2023-03-26T06:22:54.701Z,66.97
2023-03-26T06:27:57.889Z,66.23
2023-03-26T06:33:01.527Z,66.51
2023-03-26T06:38:07.764Z,66.12
2023-03-26T06:43:12.011Z,65.48
2023-03-26T06:48:15.493Z,66.68
2023-03-26T06:53:20.341Z,66.27
2023-03-26T06:58:40.968Z,65.11
2023-03-26T07:03:44.399Z,65.70
2023-03-26T07:08:49.222Z,65.98
2023-03-26T07:13:52.501Z,65.15
2023-03-26T07:19:13.018Z,65.14
2023-03-26T07:29:47.070Z,65.62
2023-03-26T07:34:56.432Z,66.58
2023-03-26T07:40:06.248Z,65.71
2023-03-26T07:45:21.161Z,66.31
2023-03-26T07:50:26.784Z,66.33
2023-03-26T07:55:32.152Z,66.68
2023-03-26T08:00:41.108Z,66.45
2023-03-26T08:05:53.524Z,65.99
2023-03-26T08:11:10.010Z,67.00
2023-03-26T08:16:20.783Z,66.33
2023-03-26T08:21:28.463Z,66.35
2023-03-26T08:26:44.458Z,66.06
2023-03-26T08:31:50.278Z,65.51
2023-03-26T08:36:53.806Z,66.03
2023-03-26T08:42:53.822Z,65.09
2023-03-26T08:48:34.270Z,64.51
2023-03-26T08:53:59.045Z,63.91
2023-03-26T08:59:55.947Z,63.41
2023-03-26T09:05:41.929Z,63.62
2023-03-26T09:10:54.179Z,64.03
2023-03-26T09:16:36.235Z,63.67
2023-03-26T09:22:07.146Z,64.16
2023-03-26T09:27:39.505Z,63.74
2023-03-26T09:33:22.934Z,63.70
2023-03-26T09:38:47.006Z,63.62
2023-03-26T09:44:24.176Z,63.98
2023-03-26T09:49:39.612Z,64.18
2023-03-26T09:55:20.131Z,64.31
2023-03-26T10:00:29.900Z,64.99
2023-03-26T10:05:58.196Z,65.20
2023-03-26T10:11:10.233Z,65.66
2023-03-26T10:16:25.427Z,66.38
2023-03-26T10:21:59.060Z,65.42
2023-03-26T10:27:13.550Z,65.10
2023-03-26T10:32:30.856Z,66.32
2023-03-26T10:37:49.465Z,66.84
2023-03-26T10:43:25.062Z,67.39
2023-03-26T10:48:42.139Z,67.00
2023-03-26T10:54:08.283Z,67.28
2023-03-26T10:59:14.860Z,67.46
2023-03-26T11:04:35.836Z,68.04
2023-03-26T11:09:46.860Z,67.15
2023-03-26T11:14:58.870Z,66.47
2023-03-26T11:20:08.922Z,67.47
2023-03-26T11:25:46.631Z,67.20
2023-03-26T11:30:57.178Z,67.17
2023-03-26T11:36:07.152Z,67.06
2023-03-26T11:41:16.170Z,67.22
2023-03-26T11:46:28.738Z,66.99
2023-03-26T11:51:35.812Z,66.96
2023-03-26T11:57:04.524Z,67.40
2023-03-26T12:02:24.402Z,66.98
2023-03-26T12:07:34.252Z,67.30
2023-03-26T12:12:40.741Z,67.18
2023-03-26T12:17:44.272Z,67.64
2023-03-26T12:22:49.286Z,67.46
2023-03-26T12:27:58.937Z,67.53
2023-03-26T12:33:05.879Z,66.96
2023-03-26T12:38:23.779Z,66.82
2023-03-26T12:44:47.215Z,67.85
2023-03-26T12:48:58.273Z,67.72
2023-03-26T12:54:23.891Z,66.99
2023-03-26T12:59:41.024Z,67.21
2023-03-26T13:05:07.434Z,67.98
2023-03-26T13:10:39.734Z,67.30
2023-03-26T13:15:47.402Z,67.30
2023-03-26T13:20:55.256Z,67.70
2023-03-26T13:26:06.594Z,68.39
2023-03-26T13:31:16.667Z,68.23
2023-03-26T13:36:24.837Z,67.81
2023-03-26T13:41:38.177Z,68.60
2023-03-26T13:46:44.316Z,68.49
2023-03-26T13:51:51.626Z,69.33
2023-03-26T13:57:00.276Z,69.01
2023-03-26T14:02:10.938Z,69.08
2023-03-26T14:07:22.581Z,69.28
2023-03-26T14:12:49.017Z,70.40
2023-03-26T14:17:57.402Z,70.33
2023-03-26T14:23:24.071Z,70.39
2023-03-26T14:29:03.866Z,70.62
2023-03-26T14:34:24.450Z,70.31
2023-03-26T14:40:01.581Z,69.74
2023-03-26T14:45:37.771Z,70.19
2023-03-26T14:50:55.886Z,70.72
2023-03-26T14:56:27.120Z,71.18
2023-03-26T15:01:53.700Z,70.72
2023-03-26T15:07:31.399Z,70.83
2023-03-26T15:12:49.918Z,72.35
2023-03-26T15:18:29.167Z,71.68
2023-03-26T15:24:00.831Z,70.72
2023-03-26T15:29:25.882Z,70.78
2023-03-26T15:34:59.703Z,70.62
2023-03-26T15:40:27.855Z,70.60
2023-03-26T15:45:37.938Z,70.91
2023-03-26T15:50:52.923Z,71.07
2023-03-26T15:56:33.028Z,71.41
2023-03-26T16:01:52.365Z,71.42
2023-03-26T16:07:03.509Z,71.41
2023-03-26T16:12:29.823Z,71.26
2023-03-26T16:18:22.753Z,72.20
2023-03-26T16:23:29.507Z,71.65
2023-03-26T16:28:35.265Z,71.17
2023-03-26T16:33:45.770Z,71.17
2023-03-26T16:39:10.905Z,70.98
2023-03-26T16:44:21.784Z,71.41
2023-03-26T16:49:40.067Z,71.40
2023-03-26T16:54:52.756Z,70.61
2023-03-26T17:00:29.315Z,70.31
2023-03-26T17:05:39.253Z,70.96
2023-03-26T17:10:53.552Z,70.70
2023-03-26T17:16:07.409Z,70.62
2023-03-26T17:21:17.368Z,70.62
2023-03-26T17:26:27.250Z,70.11
2023-03-26T17:31:41.477Z,70.41
2023-03-26T17:36:56.483Z,69.79
2023-03-26T17:42:13.769Z,69.79
2023-03-26T17:47:27.980Z,70.00
2023-03-26T17:52:55.747Z,70.30
2023-03-26T17:58:01.228Z,69.96
2023-03-26T18:03:13.306Z,69.37
2023-03-26T18:08:35.169Z,69.47
2023-03-26T18:13:55.082Z,69.05
2023-03-26T18:19:00.951Z,69.13
2023-03-26T18:24:07.912Z,68.53
2023-03-26T18:29:18.556Z,67.47
2023-03-26T18:34:22.685Z,67.73
2023-03-26T18:39:28.353Z,68.30
2023-03-26T18:44:34.506Z,67.99
2023-03-26T18:49:38.108Z,68.76
2023-03-26T18:54:44.295Z,68.42
2023-03-26T18:59:51.819Z,68.55
2023-03-26T19:04:56.845Z,68.69
2023-03-26T19:10:01.907Z,68.40
2023-03-26T19:15:07.975Z,68.70
2023-03-26T19:20:17.963Z,68.66
2023-03-26T19:25:26.720Z,68.50
2023-03-26T19:30:33.483Z,68.79
2023-03-26T19:35:42.205Z,68.81
2023-03-26T19:40:47.386Z,68.95
2023-03-26T19:45:59.573Z,68.66
2023-03-26T19:51:06.823Z,68.62
2023-03-26T19:56:19.427Z,67.93
2023-03-26T20:01:26.774Z,68.86
2023-03-26T20:06:42.638Z,68.61
2023-03-26T20:11:49.756Z,68.95
2023-03-26T20:16:53.861Z,68.62
2023-03-26T20:21:57.371Z,69.04
2023-03-26T20:27:02.182Z,68.92
2023-03-26T20:32:09.581Z,68.28
2023-03-26T20:37:13.164Z,69.21
2023-03-26T20:42:18.117Z,68.17
2023-03-26T20:47:21.807Z,68.94
2023-03-26T20:52:25.895Z,68.30
2023-03-26T20:57:33.380Z,69.11
2023-03-26T21:02:37.182Z,68.62
2023-03-26T21:07:41.314Z,68.88
2023-03-26T21:12:52.422Z,69.17
2023-03-26T21:17:56.827Z,69.23
2023-03-26T21:23:06.327Z,69.11
2023-03-26T21:28:28.905Z,68.58
2023-03-26T21:33:41.113Z,68.77
2023-03-26T21:38:45.693Z,68.48
2023-03-26T21:43:50.829Z,68.93
2023-03-26T21:48:54.801Z,68.58
2023-03-26T21:53:58.728Z,68.44
2023-03-26T21:59:11.896Z,68.20
2023-03-26T22:04:19.595Z,69.18
2023-03-26T22:09:30.096Z,68.02
2023-03-26T22:14:40.686Z,68.64
2023-03-26T22:19:44.091Z,68.11
2023-03-26T22:24:48.006Z,68.97
2023-03-26T22:29:53.064Z,68.58
2023-03-26T22:34:56.526Z,68.23
2023-03-26T22:40:00.347Z,68.25
2023-03-26T22:45:06.213Z,68.14
2023-03-26T22:50:11.758Z,67.98
2023-03-26T22:55:15.833Z,67.89
2023-03-26T23:00:34.968Z,68.00
2023-03-26T23:05:38.791Z,67.74
2023-03-26T23:10:44.176Z,67.79
2023-03-26T23:15:52.289Z,68.32
2023-03-26T23:20:57.917Z,69.09
2023-03-26T23:26:03.160Z,68.84
2023-03-26T23:31:10.342Z,69.49
2023-03-26T23:36:15.038Z,69.08
2023-03-26T23:41:21.772Z,68.61
2023-03-26T23:46:30.909Z,68.52
2023-03-26T23:51:36.273Z,68.62
2023-03-26T23:56:39.943Z,68.89
